Time;durP1;ratioP1;P1;durP2;ratioP2;P2;SDS_P1;SDS_P2;PMS_P1;PMS_P2;Temp;Humidity;BMP_temperature;BMP_pressure;BME280_temperature;BME280_humidity;BME280_pressure;Samples;Min_cycle;Max_cycle;Signal;HPM_P1;HPM_P2
2022/09/29 00:00:41;;;;;;;;;;;;;;;16.46;58.23;99872.25;5016600;28;1112;-51
2022/09/29 00:03:06;;;;;;;;;;;;;;;16.37;57.71;99872.09;5017004;28;1120;-51
2022/09/29 00:05:32;;;;;;;;;;;;;;;16.28;57.60;99863.69;5017034;28;1211;-53
2022/09/29 00:07:57;;;;;;;;;;;;;;;16.19;57.34;99855.31;5016664;28;1367;-50
2022/09/29 00:10:23;;;;;;;;;;;;;;;16.13;57.25;99853.75;5016542;28;1211;-52
2022/09/29 00:12:48;;;;;;;;;;;;;;;16.08;57.30;99849.13;5016055;28;1179;-55
2022/09/29 00:15:14;;;;;;;;;;;;;;;16.77;58.85;99854.25;5016846;28;1148;-51
2022/09/29 00:17:39;;;;;;;;;;;;;;;17.45;58.48;99852.06;5016548;28;1910;-51
2022/09/29 00:20:05;;;;;;;;;;;;;;;16.75;58.90;99845.47;5016805;28;1152;-52
2022/09/29 00:22:30;;;;;;;;;;;;;;;16.58;58.52;99850.69;5016723;28;1151;-51
2022/09/29 00:24:56;;;;;;;;;;;;;;;16.45;58.13;99852.22;5016037;28;1806;-51
2022/09/29 00:27:21;;;;;;;;;;;;;;;16.33;57.82;99855.41;5016740;28;1156;-50
2022/09/29 00:29:47;;;;;;;;;;;;;;;16.25;57.35;99856.06;5014813;28;1131;-50
2022/09/29 00:32:12;;;;;;;;;;;;;;;16.17;57.57;99857.53;5016355;28;1123;-46
2022/09/29 00:34:38;;;;;;;;;;;;;;;16.13;57.80;99869.34;5016697;28;1029;-52
2022/09/29 00:37:03;;;;;;;;;;;;;;;17.46;58.58;99858.41;5016268;28;1910;-51
2022/09/29 00:39:28;;;;;;;;;;;;;;;17.15;59.09;99858.09;5016831;28;1112;-51
2022/09/29 00:41:56;;;;;;;;;;;;;;;16.73;58.68;99861.44;5016391;28;1476;-53
2022/09/29 00:44:21;;;;;;;;;;;;;;;16.51;58.53;99858.44;5016487;28;1179;-51
2022/09/29 00:46:48;;;;;;;;;;;;;;;16.44;57.80;99858.84;5016413;28;1135;-52
2022/09/29 00:49:17;;;;;;;;;;;;;;;16.33;57.50;99854.59;5014321;28;1088;-52
2022/09/29 00:51:43;;;;;;;;;;;;;;;16.22;57.48;99853.91;5016557;28;1167;-50
2022/09/29 00:54:09;;;;;;;;;;;;;;;16.16;57.13;99857.78;5015058;28;2282;-52
2022/09/29 00:56:35;;;;;;;;;;;;;;;16.69;58.88;99867.81;5015072;28;1918;-52
2022/09/29 00:59:01;;;;;;;;;;;;;;;17.08;59.03;99870.28;5015086;28;1132;-51
2022/09/29 01:01:27;;;;;;;;;;;;;;;16.63;58.94;99869.81;5015517;28;1116;-52
2022/09/29 01:03:55;;;;;;;;;;;;;;;16.43;58.39;99870.91;5015140;28;1196;-53
2022/09/29 01:06:21;;;;;;;;;;;;;;;16.39;57.74;99870.66;5014831;28;1218;-50
2022/09/29 01:08:56;;;;;;;;;;;;;;;16.23;57.68;99866.50;5016014;28;1116;-51
2022/09/29 01:11:22;;;;;;;;;;;;;;;16.17;57.46;99878.63;5016279;28;1147;-52
2022/09/29 01:13:47;;;;;;;;;;;;;;;16.51;58.71;99877.66;5015791;28;922;-54
2022/09/29 01:16:13;;;;;;;;;;;;;;;17.68;58.35;99887.94;5016103;28;1163;-51
2022/09/29 01:18:38;;;;;;;;;;;;;;;16.94;59.24;99877.63;5016303;28;1969;-49
2022/09/29 01:21:23;;;;;;;;;;;;;;;16.60;58.96;99876.69;5015148;28;1135;-51
2022/09/29 01:24:07;;;;;;;;;;;;;;;16.48;58.09;99883.75;5002761;28;1807;-50
2022/09/29 01:26:36;;;;;;;;;;;;;;;16.33;57.86;99874.59;5011140;28;1096;-50
2022/09/29 01:29:34;;;;;;;;;;;;;;;16.25;57.67;99872.50;5015683;28;1233;-48
2022/09/29 01:32:03;;;;;;;;;;;;;;;16.13;57.37;99885.81;4955982;28;1126;-52
2022/09/29 01:34:47;;;;;;;;;;;;;;;16.41;58.23;99884.94;4998704;28;1108;-51
2022/09/29 01:37:15;;;;;;;;;;;;;;;17.51;58.71;99890.47;5015637;28;1971;-52
2022/09/29 01:39:42;;;;;;;;;;;;;;;16.82;59.20;99882.75;4998636;28;1112;-51
2022/09/29 01:42:18;;;;;;;;;;;;;;;16.56;58.47;99881.19;4998423;28;1140;-52
2022/09/29 01:44:43;;;;;;;;;;;;;;;16.45;58.07;99889.81;4998931;28;946;-45
2022/09/29 01:47:10;;;;;;;;;;;;;;;16.32;57.96;99878.44;5016112;28;1156;-51
2022/09/29 01:49:37;;;;;;;;;;;;;;;16.25;57.66;99884.28;4998153;28;863;-51
2022/09/29 01:52:06;;;;;;;;;;;;;;;16.17;57.33;99884.97;4998083;28;1199;-46
2022/09/29 01:55:07;;;;;;;;;;;;;;;16.13;57.32;99886.66;5017824;28;2343;-47
2022/09/29 01:57:32;;;;;;;;;;;;;;;17.35;58.79;99898.13;4920291;29;2063;-45
2022/09/29 02:00:00;;;;;;;;;;;;;;;17.23;58.80;99890.38;4989179;28;1156;-49
2022/09/29 02:02:31;;;;;;;;;;;;;;;16.76;59.00;99895.72;5001650;28;906;-50
2022/09/29 02:04:57;;;;;;;;;;;;;;;16.56;58.47;99891.31;5019575;28;1148;-49
2022/09/29 02:07:24;;;;;;;;;;;;;;;16.46;58.18;99896.94;5001573;28;1120;-47
2022/09/29 02:09:51;;;;;;;;;;;;;;;16.38;57.61;99890.19;5001882;28;1121;-49
2022/09/29 02:12:18;;;;;;;;;;;;;;;16.24;57.73;99892.81;5019169;28;1164;-46
2022/09/29 02:14:45;;;;;;;;;;;;;;;16.18;57.27;99883.03;5018183;28;926;-47
2022/09/29 02:17:18;;;;;;;;;;;;;;;16.72;58.75;99884.50;5019063;28;1909;-49
2022/09/29 02:19:44;;;;;;;;;;;;;;;17.24;58.71;99881.03;5018025;28;1121;-50
2022/09/29 02:22:09;;;;;;;;;;;;;;;16.79;59.04;99883.31;5001826;28;1164;-51
2022/09/29 02:24:35;;;;;;;;;;;;;;;16.58;58.57;99878.94;5001498;28;1831;-48
2022/09/29 02:27:01;;;;;;;;;;;;;;;16.47;58.04;99871.16;5019109;28;1216;-50
2022/09/29 02:29:26;;;;;;;;;;;;;;;16.37;57.68;99875.66;5014367;28;1143;-47
2022/09/29 02:31:52;;;;;;;;;;;;;;;16.26;57.49;99874.16;5017443;28;1172;-45
2022/09/29 02:34:18;;;;;;;;;;;;;;;16.20;57.55;99873.41;5018197;28;1040;-49
2022/09/29 02:36:50;;;;;;;;;;;;;;;16.16;57.17;99879.75;5018393;28;1962;-47
2022/09/29 02:39:34;;;;;;;;;;;;;;;16.13;57.74;99883.91;5017129;28;1133;-45
2022/09/29 02:42:02;;;;;;;;;;;;;;;17.57;58.29;99878.25;5018502;28;1111;-46
2022/09/29 02:44:27;;;;;;;;;;;;;;;16.87;59.20;99874.41;5018677;28;1104;-48
2022/09/29 02:47:11;;;;;;;;;;;;;;;16.60;58.74;99875.91;5018876;28;1276;-48
2022/09/29 02:49:45;;;;;;;;;;;;;;;16.46;58.24;99870.31;5018495;28;1104;-49
2022/09/29 02:52:22;;;;;;;;;;;;;;;16.35;57.76;99879.78;5016590;28;1088;-45
2022/09/29 02:54:48;;;;;;;;;;;;;;;16.24;57.53;99866.22;5017122;28;1855;-46
2022/09/29 02:57:16;;;;;;;;;;;;;;;16.17;57.37;99876.72;5018290;28;1910;-47
2022/09/29 02:59:42;;;;;;;;;;;;;;;16.66;58.58;99871.16;5017725;28;1210;-48
2022/09/29 03:02:07;;;;;;;;;;;;;;;17.73;58.20;99878.81;5017853;28;885;-50
2022/09/29 03:04:32;;;;;;;;;;;;;;;16.92;58.84;99875.19;5017682;28;1144;-47
2022/09/29 03:06:58;;;;;;;;;;;;;;;16.69;58.54;99881.53;5017883;28;1092;-48
2022/09/29 03:09:23;;;;;;;;;;;;;;;16.53;58.05;99876.25;5018194;28;1175;-47
2022/09/29 03:11:49;;;;;;;;;;;;;;;16.40;57.83;99875.06;5018372;28;1159;-48
2022/09/29 03:14:14;;;;;;;;;;;;;;;16.36;57.76;99870.47;5017057;28;849;-48
2022/09/29 03:16:40;;;;;;;;;;;;;;;16.26;57.54;99868.66;5017806;28;1902;-43
2022/09/29 03:19:06;;;;;;;;;;;;;;;16.17;57.41;99878.63;5017983;28;1128;-48
2022/09/29 03:21:32;;;;;;;;;;;;;;;16.83;58.84;99878.88;5017851;28;1226;-45
2022/09/29 03:23:57;;;;;;;;;;;;;;;17.50;58.41;99875.94;5017491;28;2394;-49
2022/09/29 03:26:22;;;;;;;;;;;;;;;16.86;58.90;99878.28;5017454;28;1115;-47
2022/09/29 03:28:51;;;;;;;;;;;;;;;16.62;58.44;99878.34;5017118;28;1231;-49
2022/09/29 03:31:16;;;;;;;;;;;;;;;16.47;58.03;99882.13;5017706;28;1144;-47
2022/09/29 03:33:42;;;;;;;;;;;;;;;16.35;57.91;99885.28;5003629;28;1112;-44
2022/09/29 03:36:08;;;;;;;;;;;;;;;16.29;57.70;99884.53;5017871;28;1151;-42
2022/09/29 03:38:33;;;;;;;;;;;;;;;16.23;57.29;99885.72;5017210;28;1972;-49
2022/09/29 03:40:58;;;;;;;;;;;;;;;17.18;58.87;99885.78;5017556;28;1148;-46
2022/09/29 03:43:24;;;;;;;;;;;;;;;17.03;58.92;99888.78;5017556;28;1163;-45
2022/09/29 03:45:49;;;;;;;;;;;;;;;16.68;58.61;99886.22;5017409;28;1270;-47
2022/09/29 03:48:15;;;;;;;;;;;;;;;16.56;58.28;99881.19;5017391;28;1089;-47
2022/09/29 03:50:41;;;;;;;;;;;;;;;16.37;58.12;99889.38;5017133;28;1345;-49
2022/09/29 03:53:06;;;;;;;;;;;;;;;16.32;57.72;99883.94;5017221;28;1141;-52
2022/09/29 03:55:32;;;;;;;;;;;;;;;16.24;57.56;99882.69;5017157;28;2104;-50
2022/09/29 03:57:57;;;;;;;;;;;;;;;16.19;57.51;99881.91;5016430;28;1973;-49
2022/09/29 04:00:22;;;;;;;;;;;;;;;17.35;58.62;99877.00;5017257;28;1104;-49
2022/09/29 04:02:48;;;;;;;;;;;;;;;17.04;58.99;99877.50;5016895;28;1171;-51
2022/09/29 04:05:14;;;;;;;;;;;;;;;16.64;58.86;99876.94;5016947;28;1124;-52
2022/09/29 04:07:40;;;;;;;;;;;;;;;16.49;58.38;99874.41;5017303;28;1183;-47
2022/09/29 04:10:05;;;;;;;;;;;;;;;16.39;58.23;99875.34;5017197;28;1077;-50
2022/09/29 04:12:31;;;;;;;;;;;;;;;16.29;57.64;99876.31;5016597;28;1218;-47
2022/09/29 04:14:56;;;;;;;;;;;;;;;16.21;57.40;99890.66;5016233;28;1104;-50
2022/09/29 04:17:22;;;;;;;;;;;;;;;16.17;57.46;99889.63;5016488;28;1898;-52
2022/09/29 04:19:47;;;;;;;;;;;;;;;16.15;57.17;99898.13;5016744;28;1375;-52
2022/09/29 04:22:17;;;;;;;;;;;;;;;17.42;58.39;99891.16;5016728;28;1085;-48
2022/09/29 04:24:43;;;;;;;;;;;;;;;16.99;59.03;99896.78;5016396;28;1893;-51
2022/09/29 04:27:08;;;;;;;;;;;;;;;16.64;58.72;99887.91;5016050;28;942;-54
2022/09/29 04:29:34;;;;;;;;;;;;;;;16.53;58.15;99883.69;5016349;28;1128;-51
2022/09/29 04:31:59;;;;;;;;;;;;;;;16.39;57.84;99878.09;5016701;28;1272;-51
2022/09/29 04:34:25;;;;;;;;;;;;;;;16.25;57.57;99878.81;5016487;28;1097;-45
2022/09/29 04:36:50;;;;;;;;;;;;;;;16.23;57.35;99880.22;5016306;28;1917;-49
2022/09/29 04:39:16;;;;;;;;;;;;;;;16.42;58.47;99883.81;5016319;28;935;-46
2022/09/29 04:41:41;;;;;;;;;;;;;;;17.71;58.20;99883.78;5016635;28;1247;-50
2022/09/29 04:44:07;;;;;;;;;;;;;;;16.97;59.03;99882.53;5016156;28;1180;-50
2022/09/29 04:46:32;;;;;;;;;;;;;;;16.68;58.72;99882.66;5016560;28;1132;-54
2022/09/29 04:48:58;;;;;;;;;;;;;;;16.54;58.23;99890.81;5016817;28;1148;-48
2022/09/29 04:51:23;;;;;;;;;;;;;;;16.41;57.99;99898.66;5016024;28;1290;-45
2022/09/29 04:53:49;;;;;;;;;;;;;;;16.32;57.72;99900.41;5016329;28;1120;-49
2022/09/29 04:56:14;;;;;;;;;;;;;;;16.26;57.43;99909.81;5014977;28;1183;-47
2022/09/29 04:58:40;;;;;;;;;;;;;;;16.17;57.23;99915.13;5015838;28;1902;-47
2022/09/29 05:01:09;;;;;;;;;;;;;;;16.13;57.29;99910.50;5016466;28;1243;-50
2022/09/29 05:03:34;;;;;;;;;;;;;;;17.31;58.79;99906.19;5015937;28;879;-51
2022/09/29 05:05:59;;;;;;;;;;;;;;;16.99;58.91;99910.50;5016213;28;1144;-52
2022/09/29 05:08:25;;;;;;;;;;;;;;;16.69;58.67;99915.31;5016163;28;1112;-46
2022/09/29 05:10:51;;;;;;;;;;;;;;;16.52;58.22;99909.47;5016411;28;1132;-47
2022/09/29 05:13:16;;;;;;;;;;;;;;;16.39;57.90;99920.06;5016050;28;1120;-49
2022/09/29 05:15:42;;;;;;;;;;;;;;;16.30;57.81;99915.50;5016335;28;848;-48
2022/09/29 05:18:07;;;;;;;;;;;;;;;16.20;57.50;99916.44;5016066;28;1899;-50
2022/09/29 05:20:32;;;;;;;;;;;;;;;16.19;57.24;99923.06;5015880;28;1218;-50
2022/09/29 05:22:58;;;;;;;;;;;;;;;17.33;58.65;99917.69;5016264;28;1175;-52
2022/09/29 05:25:24;;;;;;;;;;;;;;;17.07;58.56;99923.59;5016764;28;1085;-48
2022/09/29 05:27:50;;;;;;;;;;;;;;;16.67;58.62;99924.94;5015450;28;1010;-46
2022/09/29 05:30:15;;;;;;;;;;;;;;;16.50;58.60;99931.75;5019802;28;1113;-49
2022/09/29 05:32:41;;;;;;;;;;;;;;;16.40;58.11;99929.94;5020202;28;1113;-48
2022/09/29 05:35:07;;;;;;;;;;;;;;;16.34;57.80;99927.53;5019870;28;1116;-49
2022/09/29 05:37:32;;;;;;;;;;;;;;;16.29;57.59;99936.66;5019757;28;1969;-49
2022/09/29 05:39:58;;;;;;;;;;;;;;;17.65;55.63;99938.03;5019593;28;1167;-49
2022/09/29 05:42:24;;;;;;;;;;;;;;;17.13;55.11;99940.00;5019869;28;1179;-47
2022/09/29 05:44:50;;;;;;;;;;;;;;;16.59;53.68;99937.38;5019692;28;1120;-46
2022/09/29 05:47:15;;;;;;;;;;;;;;;17.44;55.54;99935.63;5019656;28;1192;-49
2022/09/29 05:49:41;;;;;;;;;;;;;;;16.86;54.00;99942.25;5019507;28;1231;-48
2022/09/29 05:52:06;;;;;;;;;;;;;;;17.33;54.97;99936.91;5019893;28;962;-47
2022/09/29 05:54:32;;;;;;;;;;;;;;;17.31;54.54;99921.88;5020238;28;1199;-47
2022/09/29 05:56:57;;;;;;;;;;;;;;;16.98;52.82;99917.13;5019604;28;1981;-50
2022/09/29 05:59:22;;;;;;;;;;;;;;;17.00;52.70;99916.81;5019388;28;1124;-50
2022/09/29 06:01:48;;;;;;;;;;;;;;;17.62;53.97;99922.16;5019750;28;1116;-46
2022/09/29 06:04:13;;;;;;;;;;;;;;;17.08;52.80;99930.72;5019260;28;946;-45
2022/09/29 06:06:39;;;;;;;;;;;;;;;16.91;51.32;99925.75;5018535;28;1246;-50
2022/09/29 06:09:04;;;;;;;;;;;;;;;16.85;50.29;99917.84;5019163;28;1212;-50
2022/09/29 06:11:30;;;;;;;;;;;;;;;17.17;51.48;99922.59;5018700;28;1196;-48
2022/09/29 06:13:56;;;;;;;;;;;;;;;17.19;52.12;99917.63;5019646;28;1219;-47
2022/09/29 06:16:22;;;;;;;;;;;;;;;16.96;50.57;99913.88;5019189;28;998;-48
2022/09/29 06:18:48;;;;;;;;;;;;;;;17.82;52.21;99918.22;5019028;28;1999;-50
2022/09/29 06:21:15;;;;;;;;;;;;;;;17.14;51.86;99922.38;5018584;28;1180;-48
2022/09/29 06:23:40;;;;;;;;;;;;;;;17.60;52.10;99914.22;5019320;28;1191;-51
2022/09/29 06:26:06;;;;;;;;;;;;;;;17.64;52.54;99921.84;5018472;28;1302;-49
2022/09/29 06:28:32;;;;;;;;;;;;;;;17.29;51.39;99919.38;5018431;28;1089;-49
2022/09/29 06:30:58;;;;;;;;;;;;;;;17.10;50.26;99931.22;5018672;28;1235;-47
2022/09/29 06:33:24;;;;;;;;;;;;;;;17.05;49.55;99925.00;5019076;28;1148;-44
2022/09/29 06:38:33;;;;;;;;;;;;;;;17.47;51.24;99925.16;5004012;28;1914;-50
2022/09/29 06:40:59;;;;;;;;;;;;;;;17.15;50.52;99930.31;5018335;28;1172;-46
2022/09/29 06:43:24;;;;;;;;;;;;;;;17.14;49.09;99928.72;5019074;28;1077;-47
2022/09/29 06:45:50;;;;;;;;;;;;;;;17.44;49.71;99932.88;5018725;28;1100;-48
2022/09/29 06:48:15;;;;;;;;;;;;;;;17.56;51.04;99934.38;5018254;28;1168;-52
2022/09/29 06:50:41;;;;;;;;;;;;;;;17.20;50.40;99937.69;5018506;28;1140;-53
2022/09/29 06:53:07;;;;;;;;;;;;;;;17.12;49.21;99935.59;5018055;28;1160;-49
2022/09/29 06:55:32;;;;;;;;;;;;;;;17.06;48.69;99943.91;5018195;28;1160;-47
2022/09/29 06:57:58;;;;;;;;;;;;;;;17.01;48.18;99944.00;5017155;28;1906;-51
2022/09/29 07:00:23;;;;;;;;;;;;;;;17.35;49.12;99945.69;5018263;28;1132;-52
2022/09/29 07:02:49;;;;;;;;;;;;;;;17.40;49.77;99942.88;5017949;28;1199;-53
2022/09/29 07:05:15;;;;;;;;;;;;;;;17.24;49.14;99942.28;5018052;28;1112;-48
2022/09/29 07:07:41;;;;;;;;;;;;;;;17.10;48.51;99942.22;5018280;28;1228;-51
2022/09/29 07:10:06;;;;;;;;;;;;;;;17.02;47.95;99942.88;5018616;28;1191;-50
2022/09/29 07:12:32;;;;;;;;;;;;;;;17.04;48.54;99945.31;5017228;28;1117;-50
2022/09/29 07:14:57;;;;;;;;;;;;;;;17.56;49.52;99946.19;5017702;28;1183;-48
2022/09/29 07:17:22;;;;;;;;;;;;;;;17.22;49.08;99943.69;5017806;28;1901;-52
2022/09/29 07:19:48;;;;;;;;;;;;;;;17.00;48.54;99944.28;5017464;28;1077;-47
2022/09/29 07:22:13;;;;;;;;;;;;;;;17.94;49.76;99946.09;5018108;28;1251;-45
2022/09/29 07:24:39;;;;;;;;;;;;;;;17.41;49.78;99938.19;5017485;28;1314;-49
2022/09/29 07:27:06;;;;;;;;;;;;;;;17.23;49.06;99945.31;5015301;28;1132;-48
2022/09/29 07:29:32;;;;;;;;;;;;;;;17.14;48.23;99949.84;5005888;28;1151;-50
2022/09/29 07:31:58;;;;;;;;;;;;;;;17.10;48.02;99947.69;5017636;28;1179;-50
2022/09/29 07:34:23;;;;;;;;;;;;;;;17.14;47.59;99944.34;5017909;28;1085;-49
2022/09/29 07:36:49;;;;;;;;;;;;;;;17.83;48.90;99949.31;5017813;28;1914;-50
2022/09/29 07:39:14;;;;;;;;;;;;;;;17.33;49.48;99936.91;4999975;28;1156;-49
2022/09/29 07:41:39;;;;;;;;;;;;;;;17.43;49.08;99938.69;5017234;28;1207;-49
2022/09/29 07:44:05;;;;;;;;;;;;;;;17.18;48.53;99942.66;5017206;28;1120;-50
2022/09/29 07:46:31;;;;;;;;;;;;;;;17.04;48.28;99950.81;5017409;28;1191;-46
2022/09/29 07:48:57;;;;;;;;;;;;;;;17.04;47.96;99937.06;5017307;28;1278;-49
2022/09/29 07:51:22;;;;;;;;;;;;;;;17.03;47.30;99938.22;5016449;28;1216;-49
2022/09/29 07:53:48;;;;;;;;;;;;;;;16.99;47.16;99942.66;5017109;28;1101;-47
2022/09/29 07:56:13;;;;;;;;;;;;;;;17.85;48.19;99947.06;5017624;28;1096;-47
2022/09/29 07:58:39;;;;;;;;;;;;;;;17.39;49.03;99946.72;5015047;28;1965;-49
2022/09/29 08:01:05;;;;;;;;;;;;;;;17.16;48.62;99942.94;5013742;28;1338;-51
2022/09/29 08:03:31;;;;;;;;;;;;;;;17.06;48.14;99945.84;5010518;28;1291;-47
2022/09/29 08:05:56;;;;;;;;;;;;;;;17.06;47.79;99938.41;5017171;28;1148;-44
2022/09/29 08:08:22;;;;;;;;;;;;;;;17.73;48.89;99942.06;5017502;28;1030;-51
2022/09/29 08:10:47;;;;;;;;;;;;;;;17.32;48.88;99937.22;5017007;28;1112;-49
2022/09/29 08:13:13;;;;;;;;;;;;;;;17.17;48.61;99935.53;5002011;28;1203;-48
2022/09/29 08:15:38;;;;;;;;;;;;;;;17.12;47.98;99938.34;5015226;28;1265;-51
2022/09/29 08:18:03;;;;;;;;;;;;;;;17.05;47.53;99942.28;5017302;28;1971;-51
2022/09/29 08:20:29;;;;;;;;;;;;;;;17.08;47.31;99941.69;5016988;28;1231;-49
2022/09/29 08:22:55;;;;;;;;;;;;;;;17.08;46.87;99938.13;5003041;28;1203;-48
2022/09/29 08:25:21;;;;;;;;;;;;;;;17.03;47.05;99944.50;5016225;28;1208;-50
2022/09/29 08:27:46;;;;;;;;;;;;;;;16.97;47.09;99942.13;5016663;28;1230;-49
2022/09/29 08:30:12;;;;;;;;;;;;;;;16.92;46.77;99940.28;5016984;28;1120;-50
2022/09/29 08:32:37;;;;;;;;;;;;;;;16.93;46.77;99939.19;5016518;28;1129;-47
2022/09/29 08:35:03;;;;;;;;;;;;;;;17.75;47.76;99940.63;5016760;28;1172;-51
2022/09/29 08:37:30;;;;;;;;;;;;;;;17.21;48.55;99939.31;5016185;28;1903;-49
2022/09/29 08:39:55;;;;;;;;;;;;;;;17.12;48.18;99936.41;5016673;28;1112;-51
2022/09/29 08:42:39;;;;;;;;;;;;;;;17.20;47.44;99938.50;5016605;28;1192;-48
2022/09/29 08:45:06;;;;;;;;;;;;;;;17.79;48.65;99944.41;5016080;28;1203;-48
2022/09/29 08:47:34;;;;;;;;;;;;;;;17.34;48.67;99932.25;4998855;28;1136;-51
2022/09/29 08:50:15;;;;;;;;;;;;;;;17.17;48.63;99941.03;4999755;28;1139;-51
2022/09/29 08:52:42;;;;;;;;;;;;;;;17.15;47.74;99940.50;5016040;28;1167;-49
2022/09/29 08:55:17;;;;;;;;;;;;;;;17.06;47.57;99932.94;5016129;28;1156;-49
2022/09/29 08:57:45;;;;;;;;;;;;;;;17.05;47.37;99935.97;5016817;28;1914;-50
2022/09/29 09:00:15;;;;;;;;;;;;;;;17.08;47.02;99936.22;5016736;28;1414;-51
2022/09/29 09:02:59;;;;;;;;;;;;;;;17.01;46.85;99935.78;5017405;28;927;-46
2022/09/29 09:05:24;;;;;;;;;;;;;;;17.01;46.75;99930.28;5020255;28;885;-48
2022/09/29 09:08:04;;;;;;;;;;;;;;;17.93;48.28;99940.91;5021115;28;1195;-48
2022/09/29 09:10:42;;;;;;;;;;;;;;;17.55;48.85;99932.72;5002582;28;1210;-49
2022/09/29 09:13:08;;;;;;;;;;;;;;;17.28;48.37;99945.25;5002443;28;1146;-52
2022/09/29 09:15:33;;;;;;;;;;;;;;;17.14;48.22;99933.38;5012755;28;843;-50
2022/09/29 09:18:19;;;;;;;;;;;;;;;17.15;47.66;99941.31;5018988;28;1914;-50
2022/09/29 09:20:51;;;;;;;;;;;;;;;17.10;47.14;99931.22;5020188;28;1144;-50
2022/09/29 09:23:21;;;;;;;;;;;;;;;17.06;47.11;99932.94;5002620;28;1132;-49
2022/09/29 09:25:48;;;;;;;;;;;;;;;16.98;47.00;99928.09;5019137;28;1148;-51
2022/09/29 09:28:16;;;;;;;;;;;;;;;17.89;48.75;99931.59;5019022;28;1118;-50
2022/09/29 09:30:43;;;;;;;;;;;;;;;17.43;48.94;99925.78;5019937;28;1096;-47
2022/09/29 09:33:18;;;;;;;;;;;;;;;17.32;48.32;99924.31;5001886;28;1186;-51
2022/09/29 09:35:44;;;;;;;;;;;;;;;17.17;47.99;99927.31;5003057;28;1230;-51
2022/09/29 09:38:12;;;;;;;;;;;;;;;17.22;47.64;99936.28;5002417;28;1976;-52
2022/09/29 09:40:39;;;;;;;;;;;;;;;17.70;48.76;99935.22;5002165;28;1223;-49
2022/09/29 09:43:09;;;;;;;;;;;;;;;17.39;48.60;99930.25;5002521;28;1085;-50
2022/09/29 09:46:01;;;;;;;;;;;;;;;17.28;48.02;99931.53;5002314;28;1104;-47
2022/09/29 09:48:31;;;;;;;;;;;;;;;17.26;47.78;99937.31;5015219;28;1259;-46
2022/09/29 09:50:58;;;;;;;;;;;;;;;17.36;48.38;99944.59;5002108;28;1081;-50
2022/09/29 09:53:30;;;;;;;;;;;;;;;17.22;48.57;99947.25;4995971;28;1189;-50
2022/09/29 09:56:04;;;;;;;;;;;;;;;17.20;47.86;99945.94;5020212;28;1168;-51
2022/09/29 09:58:51;;;;;;;;;;;;;;;17.21;47.42;99944.81;5018874;28;1907;-49
2022/09/29 10:01:17;;;;;;;;;;;;;;;17.10;47.53;99939.47;4990244;28;1172;-49
2022/09/29 10:03:42;;;;;;;;;;;;;;;17.09;47.27;99943.31;4999679;28;1144;-49
2022/09/29 10:06:08;;;;;;;;;;;;;;;17.02;47.13;99942.88;5018743;28;1022;-52
2022/09/29 10:08:41;;;;;;;;;;;;;;;17.39;47.87;99940.41;5007159;28;1247;-53
2022/09/29 10:11:25;;;;;;;;;;;;;;;17.51;48.71;99934.44;4990460;28;1204;-48
2022/09/29 10:14:03;;;;;;;;;;;;;;;17.20;48.69;99945.94;4999842;28;1483;-49
2022/09/29 10:16:40;;;;;;;;;;;;;;;17.18;47.91;99950.88;4991396;28;1317;-49
2022/09/29 10:19:05;;;;;;;;;;;;;;;17.15;47.88;99952.28;4998574;28;1965;-45
2022/09/29 10:21:31;;;;;;;;;;;;;;;17.09;47.55;99942.50;5018873;28;1132;-50
2022/09/29 10:23:56;;;;;;;;;;;;;;;17.26;46.75;99947.47;5004746;28;1140;-49
2022/09/29 10:26:42;;;;;;;;;;;;;;;17.10;47.14;99935.91;5019524;28;1128;-51
2022/09/29 10:29:26;;;;;;;;;;;;;;;17.07;47.07;99940.06;5015004;28;1544;-44
2022/09/29 10:32:21;;;;;;;;;;;;;;;17.12;47.04;99950.16;5009045;28;1074;-45
2022/09/29 10:34:48;;;;;;;;;;;;;;;17.93;47.79;99938.16;5010133;28;1478;-46
2022/09/29 10:37:24;;;;;;;;;;;;;;;17.42;48.65;99937.06;5001564;28;1970;-45
2022/09/29 10:39:49;;;;;;;;;;;;;;;17.28;48.17;99940.56;4997827;28;1108;-47
2022/09/29 10:42:22;;;;;;;;;;;;;;;17.24;47.63;99938.72;5009859;28;1239;-50
2022/09/29 10:45:13;;;;;;;;;;;;;;;17.23;47.31;99937.88;5018502;28;1208;-50
2022/09/29 10:47:39;;;;;;;;;;;;;;;17.21;47.26;99928.34;5014173;28;1164;-49
2022/09/29 10:50:11;;;;;;;;;;;;;;;17.11;47.03;99934.81;5018386;28;1116;-51
2022/09/29 10:52:37;;;;;;;;;;;;;;;17.03;47.36;99927.22;5017787;28;1214;-49
2022/09/29 10:55:02;;;;;;;;;;;;;;;17.20;47.20;99930.25;5000759;28;1262;-47
2022/09/29 10:57:29;;;;;;;;;;;;;;;17.84;48.75;99918.75;5018041;28;1977;-49
2022/09/29 10:59:55;;;;;;;;;;;;;;;17.41;48.84;99928.00;4999978;28;1183;-48
2022/09/29 11:02:23;;;;;;;;;;;;;;;17.32;48.43;99926.22;5018730;28;1120;-50
2022/09/29 11:04:49;;;;;;;;;;;;;;;17.27;47.80;99913.41;5017998;28;1096;-48
2022/09/29 11:07:14;;;;;;;;;;;;;;;17.25;47.52;99910.13;5018028;28;1175;-48
2022/09/29 11:09:40;;;;;;;;;;;;;;;17.22;47.22;99908.81;5000404;28;1443;-48
2022/09/29 11:12:26;;;;;;;;;;;;;;;17.16;47.44;99906.44;5018651;28;1195;-46
2022/09/29 11:14:52;;;;;;;;;;;;;;;17.08;47.42;99897.75;5017394;28;1168;-47
2022/09/29 11:17:24;;;;;;;;;;;;;;;17.15;47.27;99899.28;5000365;28;1965;-46
2022/09/29 11:20:10;;;;;;;;;;;;;;;17.13;47.06;99898.78;5016501;28;1246;-50
2022/09/29 11:22:54;;;;;;;;;;;;;;;17.10;47.11;99906.50;5015865;28;1175;-49
2022/09/29 11:25:45;;;;;;;;;;;;;;;17.02;47.30;99904.41;5017688;28;1057;-50
2022/09/29 11:28:29;;;;;;;;;;;;;;;17.05;46.96;99900.28;5001959;28;1265;-50
2022/09/29 11:30:58;;;;;;;;;;;;;;;17.05;46.85;99903.81;5011567;28;985;-50
2022/09/29 11:33:23;;;;;;;;;;;;;;;17.02;46.78;99915.41;5007217;28;1184;-52
2022/09/29 11:36:07;;;;;;;;;;;;;;;16.99;47.20;99902.28;5006735;28;1231;-50
2022/09/29 11:38:54;;;;;;;;;;;;;;;19.20;43.07;99905.50;5008463;28;2139;-49
2022/09/29 11:41:19;;;;;;;;;;;;;;;15.49;55.42;99925.06;5007332;28;1217;-48
2022/09/29 11:43:48;;;;;;;;;;;;;;;16.90;50.12;99913.13;5009045;28;1171;-49
2022/09/29 11:46:30;;;;;;;;;;;;;;;16.97;48.78;99911.91;5006409;28;1358;-44
2022/09/29 11:49:11;;;;;;;;;;;;;;;16.99;47.95;99916.00;5007855;28;1587;-45
2022/09/29 11:51:55;;;;;;;;;;;;;;;16.95;47.67;99925.94;5007507;28;1224;-44
2022/09/29 11:54:39;;;;;;;;;;;;;;;16.95;47.24;99920.47;5008204;28;1164;-44
2022/09/29 11:57:07;;;;;;;;;;;;;;;16.96;47.34;99916.59;5007699;28;1913;-45
2022/09/29 11:59:42;;;;;;;;;;;;;;;17.84;49.07;99912.41;5006119;28;1199;-46
2022/09/29 12:02:07;;;;;;;;;;;;;;;17.29;49.24;99916.66;5008543;28;1236;-47
2022/09/29 12:04:45;;;;;;;;;;;;;;;17.16;48.76;99911.91;5007480;28;1243;-49
2022/09/29 12:07:12;;;;;;;;;;;;;;;17.11;48.24;99918.31;5007880;28;1207;-47
2022/09/29 12:09:43;;;;;;;;;;;;;;;17.87;48.87;99931.09;5008290;28;1014;-49
2022/09/29 12:12:16;;;;;;;;;;;;;;;17.45;49.07;99929.03;5006464;28;1219;-49
2022/09/29 12:14:49;;;;;;;;;;;;;;;17.27;48.19;99922.44;5007921;28;1133;-45
2022/09/29 12:17:17;;;;;;;;;;;;;;;17.37;47.26;99920.66;5008313;28;1902;-44
2022/09/29 12:19:43;;;;;;;;;;;;;;;17.17;47.52;99921.81;5005898;28;1224;-45
2022/09/29 12:22:10;;;;;;;;;;;;;;;17.10;47.57;99928.47;5008386;28;1228;-47
2022/09/29 12:24:42;;;;;;;;;;;;;;;17.16;47.25;99920.16;5007465;28;1185;-47
2022/09/29 12:27:31;;;;;;;;;;;;;;;17.01;47.10;99913.78;5012600;28;1196;-49
2022/09/29 12:29:57;;;;;;;;;;;;;;;16.98;47.01;99917.13;5013690;28;1423;-47
2022/09/29 12:32:31;;;;;;;;;;;;;;;17.33;47.20;99920.44;5019709;28;1199;-48
2022/09/29 12:35:01;;;;;;;;;;;;;;;17.50;48.66;99919.06;5016775;28;1227;-49
2022/09/29 12:37:42;;;;;;;;;;;;;;;17.33;48.23;99923.19;5014728;28;1980;-47
2022/09/29 12:40:15;;;;;;;;;;;;;;;17.17;48.29;99905.31;5016727;28;1147;-46
2022/09/29 12:42:43;;;;;;;;;;;;;;;17.18;47.77;99912.44;5015932;28;1171;-49
2022/09/29 12:45:12;;;;;;;;;;;;;;;17.12;47.56;99910.88;5016384;28;1143;-48
2022/09/29 12:47:40;;;;;;;;;;;;;;;17.09;47.47;99915.03;5016296;28;1123;-46
2022/09/29 12:50:18;;;;;;;;;;;;;;;17.10;47.26;99914.75;5016482;28;1175;-45
2022/09/29 12:53:04;;;;;;;;;;;;;;;17.11;46.91;99915.56;5015819;28;1253;-46
2022/09/29 12:55:44;;;;;;;;;;;;;;;17.06;46.94;99918.38;5015613;28;1244;-48
2022/09/29 12:58:15;;;;;;;;;;;;;;;17.06;46.92;99913.69;5015888;28;1910;-47
2022/09/29 13:00:40;;;;;;;;;;;;;;;17.66;48.65;99912.19;5015024;28;1140;-46
2022/09/29 13:03:06;;;;;;;;;;;;;;;17.31;48.58;99917.19;5015845;28;1190;-47
2022/09/29 13:06:06;;;;;;;;;;;;;;;17.23;47.91;99912.34;5016036;28;1128;-46
2022/09/29 13:08:40;;;;;;;;;;;;;;;17.31;47.19;99911.69;4976710;28;1250;-50